createdAt,value
2023-02-23T00:01:53.746Z,14.17
2023-02-23T00:04:25.054Z,17.90
2023-02-23T00:06:53.640Z,18.40
2023-02-23T00:09:24.483Z,17.80
2023-02-23T00:11:53.765Z,13.63
2023-02-23T00:14:24.573Z,15.07
2023-02-23T00:16:52.583Z,13.37
2023-02-23T00:19:24.633Z,16.60
2023-02-23T00:21:52.887Z,19.87
2023-02-23T00:24:21.982Z,15.60
2023-02-23T00:26:51.405Z,18.20
2023-02-23T00:29:24.623Z,19.50
2023-02-23T00:31:53.817Z,16.70
2023-02-23T00:34:23.625Z,13.33
2023-02-23T00:36:51.922Z,17.23
2023-02-23T00:39:21.768Z,15.43
2023-02-23T00:41:54.307Z,17.67
2023-02-23T00:44:23.836Z,15.57
2023-02-23T00:46:52.772Z,21.27
2023-02-23T00:49:22.834Z,19.27
2023-02-23T00:51:53.115Z,15.70
2023-02-23T00:54:22.292Z,18.77
2023-02-23T00:56:50.823Z,16.00
2023-02-23T00:59:19.898Z,21.33
2023-02-23T01:01:48.039Z,15.00
2023-02-23T01:04:16.630Z,13.17
2023-02-23T01:06:46.099Z,16.13
2023-02-23T01:09:27.077Z,19.70
2023-02-23T01:11:56.889Z,13.10
2023-02-23T01:14:25.003Z,18.00
2023-02-23T01:16:52.941Z,15.67
2023-02-23T01:19:22.791Z,16.53
2023-02-23T01:21:50.674Z,20.70
2023-02-23T01:24:19.808Z,19.50
2023-02-23T01:26:47.990Z,16.57
2023-02-23T01:29:17.376Z,19.83
2023-02-23T01:31:47.433Z,15.37
2023-02-23T01:34:16.314Z,15.80
2023-02-23T01:36:45.269Z,16.03
2023-02-23T01:39:17.097Z,16.47
2023-02-23T01:41:46.613Z,19.90
2023-02-23T01:44:51.582Z,15.40
2023-02-23T01:47:20.364Z,19.37
2023-02-23T01:49:50.856Z,15.70
2023-02-23T01:52:20.674Z,19.57
2023-02-23T01:54:52.850Z,19.50
2023-02-23T01:57:25.154Z,18.13
2023-02-23T01:59:53.629Z,16.10
2023-02-23T02:02:32.645Z,23.47
2023-02-23T02:05:01.791Z,19.67
2023-02-23T02:07:31.939Z,19.63
2023-02-23T02:10:17.621Z,23.37
2023-02-23T02:12:51.819Z,16.87
2023-02-23T02:15:22.345Z,20.90
2023-02-23T02:18:08.983Z,18.73
2023-02-23T02:21:07.822Z,19.80
2023-02-23T02:24:38.799Z,16.60
2023-02-23T02:27:22.120Z,20.03
2023-02-23T02:30:17.184Z,19.83
2023-02-23T02:33:16.394Z,21.93
2023-02-23T02:36:22.004Z,22.57
2023-02-23T02:38:58.741Z,18.60
2023-02-23T02:41:36.898Z,20.23
2023-02-23T02:44:16.143Z,17.80
2023-02-23T02:46:49.522Z,17.77
2023-02-23T02:49:27.360Z,22.70
2023-02-23T02:52:01.276Z,21.83
2023-02-23T02:54:34.428Z,17.50
2023-02-23T02:57:04.320Z,20.23
2023-02-23T02:59:50.238Z,19.77
2023-02-23T03:02:38.324Z,25.17
2023-02-23T03:05:32.169Z,22.53
2023-02-23T03:08:28.586Z,23.27
2023-02-23T03:11:21.035Z,22.67
2023-02-23T03:14:20.072Z,22.53
2023-02-23T03:17:12.992Z,18.00
2023-02-23T03:20:06.882Z,19.43
2023-02-23T03:22:57.215Z,25.27
2023-02-23T03:25:47.703Z,18.67
2023-02-23T03:28:38.151Z,16.63
2023-02-23T03:31:30.180Z,25.00
2023-02-23T03:34:26.312Z,20.70
2023-02-23T03:37:20.972Z,23.90
2023-02-23T03:40:13.354Z,24.23
2023-02-23T03:43:00.289Z,22.47
2023-02-23T03:45:49.131Z,20.57
2023-02-23T03:48:37.237Z,17.00
2023-02-23T03:51:26.527Z,20.90
2023-02-23T03:54:17.949Z,17.93
2023-02-23T03:57:07.425Z,22.97
2023-02-23T03:59:57.899Z,17.17
2023-02-23T04:02:46.184Z,23.83
2023-02-23T04:05:36.781Z,18.60
2023-02-23T04:08:25.803Z,19.50
2023-02-23T04:11:20.167Z,17.83
2023-02-23T04:13:52.884Z,16.77
2023-02-23T04:16:20.163Z,16.70
2023-02-23T04:18:49.344Z,19.20
2023-02-23T04:21:17.565Z,23.07
2023-02-23T04:23:45.663Z,25.23
2023-02-23T04:26:13.499Z,23.93
2023-02-23T04:28:41.312Z,23.40
2023-02-23T04:31:09.170Z,23.80
2023-02-23T04:33:36.962Z,18.33
2023-02-23T04:36:07.143Z,23.03
2023-02-23T04:38:35.038Z,27.17
2023-02-23T04:41:02.932Z,21.73
2023-02-23T04:43:30.744Z,21.00
2023-02-23T04:45:58.564Z,18.00
2023-02-23T04:48:26.697Z,20.97
2023-02-23T04:50:54.662Z,18.03
2023-02-23T04:53:23.921Z,17.67
2023-02-23T04:55:51.685Z,21.33
2023-02-23T04:58:19.627Z,16.80
2023-02-23T05:00:47.944Z,18.40
2023-02-23T05:03:17.346Z,19.40
2023-02-23T05:05:46.085Z,19.60
2023-02-23T05:08:14.067Z,19.33
2023-02-23T05:10:43.487Z,23.83
2023-02-23T05:13:11.266Z,20.07
2023-02-23T05:15:39.325Z,21.10
2023-02-23T05:18:10.728Z,16.80
2023-02-23T05:20:38.530Z,22.57
2023-02-23T05:23:09.326Z,20.70
2023-02-23T05:25:39.008Z,19.03
2023-02-23T05:28:08.299Z,20.60
2023-02-23T05:30:36.446Z,18.97
2023-02-23T05:33:04.362Z,19.60
2023-02-23T05:35:32.303Z,19.43
2023-02-23T05:38:00.187Z,16.13
2023-02-23T05:40:28.077Z,20.67
2023-02-23T05:43:00.339Z,19.93
2023-02-23T05:45:29.733Z,18.00
2023-02-23T05:48:01.249Z,17.77
2023-02-23T05:50:29.410Z,17.87
2023-02-23T05:52:57.262Z,23.93
2023-02-23T05:55:28.190Z,20.87
2023-02-23T05:57:56.176Z,15.97
2023-02-23T06:00:24.393Z,16.97
2023-02-23T06:02:54.179Z,20.20
2023-02-23T06:05:22.042Z,23.63
2023-02-23T06:07:49.923Z,20.83
2023-02-23T06:10:18.277Z,20.50
2023-02-23T06:12:46.582Z,26.37
2023-02-23T06:15:14.344Z,21.87
2023-02-23T06:17:42.166Z,19.20
2023-02-23T06:20:13.402Z,25.57
2023-02-23T06:22:42.243Z,20.30
2023-02-23T06:25:12.820Z,21.60
2023-02-23T06:27:42.235Z,21.17
2023-02-23T06:30:11.392Z,24.10
2023-02-23T06:32:39.271Z,21.07
2023-02-23T06:35:08.773Z,20.53
2023-02-23T06:37:37.983Z,23.77
2023-02-23T06:40:07.172Z,17.83
2023-02-23T06:42:35.948Z,21.63
2023-02-23T06:45:03.978Z,26.20
2023-02-23T06:47:31.951Z,20.90
2023-02-23T06:50:01.967Z,21.93
2023-02-23T06:52:29.810Z,16.83
2023-02-23T06:54:59.341Z,19.00
2023-02-23T06:57:27.162Z,19.50
2023-02-23T06:59:54.895Z,23.90
2023-02-23T07:02:22.803Z,20.00
2023-02-23T07:04:50.695Z,23.60
2023-02-23T07:07:18.496Z,20.17
2023-02-23T07:09:46.291Z,19.43
2023-02-23T07:12:15.611Z,18.07
2023-02-23T07:14:43.709Z,21.70
2023-02-23T07:17:12.737Z,23.53
2023-02-23T07:19:41.169Z,19.13
2023-02-23T07:22:09.053Z,24.60
2023-02-23T07:24:37.417Z,20.00
2023-02-23T07:27:05.386Z,16.53
2023-02-23T07:29:34.516Z,19.13
2023-02-23T07:32:02.395Z,23.97
2023-02-23T07:34:30.295Z,20.47
2023-02-23T07:36:58.177Z,18.20
2023-02-23T07:39:26.568Z,22.87
2023-02-23T07:41:54.375Z,20.13
2023-02-23T07:44:22.339Z,18.13
2023-02-23T07:46:52.977Z,19.00
2023-02-23T07:49:23.677Z,29.33
2023-02-23T07:51:51.403Z,30.43
2023-02-23T07:54:19.307Z,31.00
2023-02-23T07:56:47.136Z,24.30
2023-02-23T07:59:15.351Z,20.40
2023-02-23T08:01:43.091Z,23.87
2023-02-23T08:04:12.260Z,29.17
2023-02-23T08:06:40.181Z,23.90
2023-02-23T08:09:08.443Z,22.37
2023-02-23T08:11:36.381Z,27.07
2023-02-23T08:14:04.187Z,23.50
2023-02-23T08:16:33.494Z,32.63
2023-02-23T08:19:02.233Z,24.17
2023-02-23T08:21:31.564Z,20.73
2023-02-23T08:23:59.651Z,25.90
2023-02-23T08:26:27.859Z,24.27
2023-02-23T08:28:56.526Z,20.47
2023-02-23T08:31:27.402Z,20.03
2023-02-23T08:33:55.259Z,24.30
2023-02-23T08:36:23.275Z,24.53
2023-02-23T08:38:54.111Z,24.17
2023-02-23T08:41:22.530Z,35.17
2023-02-23T08:43:50.499Z,21.43
2023-02-23T08:46:20.120Z,21.87
2023-02-23T08:48:48.303Z,19.63
2023-02-23T08:51:17.019Z,21.97
2023-02-23T08:53:44.904Z,22.13
2023-02-23T08:56:15.288Z,23.20
2023-02-23T08:58:43.680Z,23.03
2023-02-23T09:01:18.176Z,26.83
2023-02-23T09:03:46.455Z,29.77
2023-02-23T09:06:16.718Z,24.50
2023-02-23T09:08:45.135Z,19.77
2023-02-23T09:11:14.269Z,20.23
2023-02-23T09:13:42.043Z,30.73
2023-02-23T09:16:10.218Z,20.93
2023-02-23T09:18:38.328Z,19.10
2023-02-23T09:21:08.890Z,19.70
2023-02-23T09:23:37.694Z,17.87
2023-02-23T09:26:06.553Z,19.30
2023-02-23T09:28:38.051Z,14.20
2023-02-23T09:31:07.274Z,13.23
2023-02-23T09:33:35.102Z,16.00
2023-02-23T09:36:05.905Z,22.53
2023-02-23T09:38:33.674Z,16.47
2023-02-23T09:41:01.473Z,13.90
2023-02-23T09:43:35.151Z,14.77
2023-02-23T09:46:15.138Z,17.50
2023-02-23T09:48:43.931Z,15.40
2023-02-23T09:51:17.555Z,19.00
2023-02-23T09:53:49.854Z,11.93
2023-02-23T09:56:23.998Z,13.00
2023-02-23T09:58:52.119Z,17.30
2023-02-23T10:01:47.492Z,12.70
2023-02-23T10:04:22.310Z,16.47
2023-02-23T10:06:58.870Z,16.17
2023-02-23T10:09:39.838Z,20.53
2023-02-23T10:12:12.371Z,12.70
2023-02-23T10:15:11.179Z,10.10
2023-02-23T10:17:48.951Z,11.60
2023-02-23T10:20:26.678Z,12.53
2023-02-23T10:22:56.858Z,11.20
2023-02-23T10:25:26.973Z,14.20
2023-02-23T10:27:57.429Z,17.23
2023-02-23T10:30:27.252Z,13.23
2023-02-23T10:33:02.355Z,14.80
2023-02-23T10:35:32.093Z,15.37
2023-02-23T10:38:02.283Z,15.27
2023-02-23T10:40:33.296Z,13.13
2023-02-23T10:43:02.428Z,11.47
2023-02-23T10:45:35.268Z,10.70
2023-02-23T10:48:08.572Z,11.90
2023-02-23T10:50:39.421Z,14.20
2023-02-23T10:53:16.370Z,14.60
2023-02-23T10:55:45.526Z,12.13
2023-02-23T10:58:17.749Z,13.13
2023-02-23T11:00:54.683Z,11.10
2023-02-23T11:03:32.935Z,11.03
2023-02-23T11:06:01.289Z,13.83
2023-02-23T11:08:32.455Z,15.40
2023-02-23T11:11:09.490Z,11.33
2023-02-23T11:13:40.011Z,14.77
2023-02-23T11:16:13.063Z,10.73
2023-02-23T11:18:49.626Z,10.47
2023-02-23T11:21:24.109Z,12.70
2023-02-23T11:23:53.976Z,13.07
2023-02-23T11:26:29.594Z,13.40
2023-02-23T11:29:00.588Z,12.50
2023-02-23T11:31:34.685Z,12.63
2023-02-23T11:34:05.945Z,14.70
2023-02-23T11:36:35.549Z,13.20
2023-02-23T11:39:08.545Z,11.60
2023-02-23T11:41:37.315Z,17.10
2023-02-23T11:44:06.472Z,12.20
2023-02-23T11:46:37.701Z,15.83
2023-02-23T11:49:09.390Z,13.50
2023-02-23T11:51:39.123Z,13.87
2023-02-23T11:54:10.240Z,13.83
2023-02-23T11:56:38.211Z,12.60
2023-02-23T11:59:08.332Z,15.13
2023-02-23T12:01:41.620Z,14.10
2023-02-23T12:04:12.409Z,11.77
2023-02-23T12:06:41.843Z,11.33
2023-02-23T12:09:19.241Z,12.30
2023-02-23T12:11:51.562Z,10.67
2023-02-23T12:14:30.267Z,7.17
2023-02-23T12:17:05.082Z,9.80
2023-02-23T12:19:37.939Z,7.27
2023-02-23T12:22:11.539Z,8.47
2023-02-23T12:24:44.773Z,7.40
2023-02-23T12:27:16.468Z,8.73
2023-02-23T12:30:04.381Z,9.27
2023-02-23T12:32:44.729Z,7.10
2023-02-23T12:35:19.005Z,7.07
2023-02-23T12:37:50.520Z,9.60
2023-02-23T12:40:23.255Z,6.63
2023-02-23T12:42:58.378Z,7.97
2023-02-23T12:45:34.845Z,7.07
2023-02-23T12:48:09.677Z,10.60
2023-02-23T12:50:43.342Z,7.17
2023-02-23T12:53:20.801Z,10.73
2023-02-23T12:56:02.015Z,6.13
2023-02-23T12:58:38.769Z,8.57
2023-02-23T13:01:12.696Z,11.30
2023-02-23T13:04:23.498Z,9.43
2023-02-23T13:07:04.962Z,8.63
2023-02-23T13:09:45.709Z,6.30
2023-02-23T13:12:28.217Z,7.43
2023-02-23T13:15:03.222Z,5.57
2023-02-23T13:17:38.462Z,5.50
2023-02-23T13:20:16.013Z,4.60
2023-02-23T13:22:50.569Z,5.70
2023-02-23T13:25:29.075Z,8.97
2023-02-23T13:28:00.725Z,4.63
2023-02-23T13:30:33.039Z,5.03
2023-02-23T13:33:03.060Z,5.30
2023-02-23T13:35:35.308Z,4.50
2023-02-23T13:38:15.365Z,4.63
2023-02-23T13:40:49.555Z,8.03
2023-02-23T13:43:23.307Z,4.30
2023-02-23T13:46:00.752Z,3.87
2023-02-23T13:48:56.122Z,7.57
2023-02-23T13:51:34.294Z,6.03
2023-02-23T13:54:07.671Z,6.63
2023-02-23T13:56:42.731Z,4.90
2023-02-23T13:59:17.251Z,3.93
2023-02-23T14:01:47.473Z,8.60
2023-02-23T14:04:21.934Z,4.40
2023-02-23T14:06:56.432Z,4.50
2023-02-23T14:09:31.572Z,6.00
2023-02-23T14:12:06.527Z,6.90
2023-02-23T14:14:45.333Z,6.03
2023-02-23T14:17:41.355Z,6.60
2023-02-23T14:20:43.672Z,5.37
2023-02-23T14:23:50.422Z,4.80
2023-02-23T14:26:44.539Z,8.40
2023-02-23T14:29:26.481Z,4.07
2023-02-23T14:32:00.908Z,10.90
2023-02-23T14:34:52.897Z,6.57
2023-02-23T14:37:26.159Z,5.70
2023-02-23T14:39:56.272Z,5.13
2023-02-23T14:42:29.655Z,5.40
2023-02-23T14:45:03.862Z,7.27
2023-02-23T14:47:43.130Z,10.70
2023-02-23T14:50:18.881Z,5.97
2023-02-23T14:52:47.462Z,8.50
2023-02-23T14:55:23.139Z,6.03
2023-02-23T14:57:54.162Z,5.17
2023-02-23T15:00:25.476Z,4.97
2023-02-23T15:02:59.631Z,6.00
2023-02-23T15:05:30.797Z,4.97
2023-02-23T15:08:05.318Z,5.93
2023-02-23T15:10:36.296Z,6.90
2023-02-23T15:13:12.983Z,7.27
2023-02-23T15:15:45.765Z,5.70
2023-02-23T15:18:22.853Z,6.33
2023-02-23T15:20:51.567Z,5.80
2023-02-23T15:23:21.386Z,7.37
2023-02-23T15:25:51.075Z,5.60
2023-02-23T15:28:25.825Z,5.10
2023-02-23T15:30:55.342Z,8.50
2023-02-23T15:33:28.424Z,7.43
2023-02-23T15:36:02.357Z,7.97
2023-02-23T15:38:44.002Z,7.03
2023-02-23T15:41:19.534Z,6.00
2023-02-23T15:43:49.326Z,9.03
2023-02-23T15:46:24.490Z,7.60
2023-02-23T15:48:55.293Z,7.10
2023-02-23T15:51:32.045Z,7.07
2023-02-23T15:54:01.354Z,7.80
2023-02-23T15:56:30.874Z,6.40
2023-02-23T15:59:08.034Z,5.57
2023-02-23T16:01:42.787Z,7.87
2023-02-23T16:04:19.045Z,6.33
2023-02-23T16:06:55.189Z,5.90
2023-02-23T16:09:28.439Z,6.00
2023-02-23T16:12:01.505Z,7.77
2023-02-23T16:14:43.380Z,5.80
2023-02-23T16:17:21.964Z,13.10
2023-02-23T16:19:49.844Z,6.00
2023-02-23T16:22:24.518Z,5.57
2023-02-23T16:25:00.279Z,7.00
2023-02-23T16:27:29.972Z,5.47
2023-02-23T16:30:01.342Z,10.43
2023-02-23T16:32:39.769Z,7.33
2023-02-23T16:35:16.654Z,7.17
2023-02-23T16:38:01.897Z,6.13
2023-02-23T16:40:29.803Z,7.30
2023-02-23T16:42:59.359Z,8.27
2023-02-23T16:45:29.333Z,6.00
2023-02-23T16:48:01.972Z,7.07
2023-02-23T16:50:30.486Z,6.97
2023-02-23T16:52:58.251Z,6.03
2023-02-23T16:55:27.958Z,6.20
2023-02-23T16:57:57.808Z,6.07
2023-02-23T17:00:29.429Z,5.10
2023-02-23T17:02:58.473Z,5.63
2023-02-23T17:05:26.326Z,5.07
2023-02-23T17:07:54.743Z,5.17
2023-02-23T17:10:34.290Z,11.57
2023-02-23T17:13:05.406Z,8.27
2023-02-23T17:15:37.642Z,8.93
2023-02-23T17:18:06.263Z,13.70
2023-02-23T17:20:34.540Z,10.27
2023-02-23T17:23:03.211Z,6.37
2023-02-23T17:25:31.056Z,18.77
2023-02-23T17:27:59.844Z,8.60
2023-02-23T17:30:28.385Z,7.00
2023-02-23T17:32:59.999Z,6.40
2023-02-23T17:35:29.062Z,8.10
2023-02-23T17:37:56.841Z,8.17
2023-02-23T17:40:29.510Z,16.63
2023-02-23T17:42:58.958Z,5.70
2023-02-23T17:45:27.858Z,6.93
2023-02-23T17:47:57.279Z,5.70
2023-02-23T17:50:26.853Z,11.70
2023-02-23T17:52:55.303Z,10.60
2023-02-23T17:55:23.766Z,10.17
2023-02-23T17:57:51.644Z,8.70
2023-02-23T18:00:20.671Z,8.90
2023-02-23T18:02:48.723Z,13.13
2023-02-23T18:05:18.095Z,13.00
2023-02-23T18:07:48.274Z,7.33
2023-02-23T18:10:16.813Z,9.90
2023-02-23T18:12:45.071Z,6.63
2023-02-23T18:15:12.900Z,12.30
2023-02-23T18:17:40.752Z,14.10
2023-02-23T18:20:13.896Z,8.23
2023-02-23T18:22:43.696Z,17.27
2023-02-23T18:25:20.680Z,12.23
2023-02-23T18:27:51.502Z,10.90
2023-02-23T18:30:19.689Z,11.57
2023-02-23T18:32:50.417Z,7.70
2023-02-23T18:35:18.839Z,9.03
2023-02-23T18:37:48.662Z,7.93
2023-02-23T18:40:21.421Z,7.03
2023-02-23T18:42:49.477Z,9.07
2023-02-23T18:45:17.730Z,8.77
2023-02-23T18:47:45.540Z,11.10
2023-02-23T18:50:18.826Z,16.97
2023-02-23T18:52:48.915Z,16.33
2023-02-23T18:55:16.825Z,14.50
2023-02-23T18:57:44.749Z,25.87
2023-02-23T19:00:14.738Z,32.37
2023-02-23T19:02:43.285Z,33.30
2023-02-23T19:05:12.827Z,34.30
2023-02-23T19:07:41.402Z,30.47
2023-02-23T19:10:14.535Z,28.30
2023-02-23T19:12:42.373Z,26.90
2023-02-23T19:15:11.715Z,25.73
2023-02-23T19:17:39.714Z,25.60
2023-02-23T19:20:13.177Z,26.60
2023-02-23T19:22:41.842Z,20.73
2023-02-23T19:25:14.961Z,19.07
2023-02-23T19:27:43.445Z,19.00
2023-02-23T19:30:12.490Z,15.80
2023-02-23T19:32:40.526Z,17.87
2023-02-23T19:35:14.525Z,23.87
2023-02-23T19:37:47.390Z,12.30
2023-02-23T19:40:20.422Z,16.67
2023-02-23T19:42:49.371Z,21.33
2023-02-23T19:45:21.077Z,15.93
2023-02-23T19:47:48.839Z,13.10
2023-02-23T19:50:18.675Z,22.43
2023-02-23T19:52:47.173Z,20.07
2023-02-23T19:55:16.593Z,16.43
2023-02-23T19:57:44.570Z,16.30
2023-02-23T20:00:13.801Z,15.43
2023-02-23T20:02:43.490Z,20.70
2023-02-23T20:05:12.052Z,20.73
2023-02-23T20:07:40.225Z,15.70
2023-02-23T20:10:10.057Z,17.07
2023-02-23T20:12:39.230Z,17.27
2023-02-23T20:15:08.388Z,20.27
2023-02-23T20:17:36.871Z,19.17
2023-02-23T20:20:06.198Z,15.70
2023-02-23T20:22:36.270Z,18.37
2023-02-23T20:25:05.812Z,16.70
2023-02-23T20:27:33.862Z,24.43
2023-02-23T20:30:03.268Z,16.83
2023-02-23T20:32:31.162Z,21.80
2023-02-23T20:35:00.700Z,18.50
2023-02-23T20:37:28.566Z,19.40
2023-02-23T20:39:56.295Z,17.07
2023-02-23T20:42:24.562Z,22.80
2023-02-23T20:44:53.153Z,20.77
2023-02-23T20:47:22.927Z,21.50
2023-02-23T20:49:50.784Z,15.03
2023-02-23T20:52:18.597Z,17.83
2023-02-23T20:54:46.362Z,18.57
2023-02-23T20:57:14.153Z,22.97
2023-02-23T20:59:43.049Z,18.70
2023-02-23T21:02:13.910Z,20.40
2023-02-23T21:04:44.154Z,16.77
2023-02-23T21:07:13.288Z,16.57
2023-02-23T21:09:41.549Z,17.63
2023-02-23T21:12:10.296Z,16.93
2023-02-23T21:14:38.181Z,18.53
2023-02-23T21:17:05.954Z,17.03
2023-02-23T21:19:33.786Z,19.17
2023-02-23T21:22:02.983Z,16.67
2023-02-23T21:24:33.714Z,21.73
2023-02-23T21:27:05.169Z,24.03
2023-02-23T21:29:33.100Z,21.97
2023-02-23T21:32:00.974Z,20.20
2023-02-23T21:34:28.916Z,15.83
2023-02-23T21:36:59.004Z,22.47
2023-02-23T21:39:28.390Z,16.03
2023-02-23T21:41:56.557Z,21.30
2023-02-23T21:44:24.735Z,17.00
2023-02-23T21:46:52.983Z,16.40
2023-02-23T21:49:21.165Z,17.47
2023-02-23T21:51:49.010Z,15.60
2023-02-23T21:54:18.410Z,31.23
2023-02-23T21:56:47.543Z,24.63
2023-02-23T21:59:15.323Z,16.30
2023-02-23T22:01:43.516Z,17.10
2023-02-23T22:04:15.368Z,20.17
2023-02-23T22:06:45.303Z,21.30
2023-02-23T22:09:15.417Z,19.43
2023-02-23T22:11:46.324Z,14.87
2023-02-23T22:14:17.967Z,21.10
2023-02-23T22:16:46.550Z,25.90
2023-02-23T22:19:14.441Z,17.23
2023-02-23T22:21:42.992Z,20.10
2023-02-23T22:24:11.980Z,19.30
2023-02-23T22:26:41.760Z,16.53
2023-02-23T22:29:11.290Z,13.53
2023-02-23T22:31:40.630Z,10.00
2023-02-23T22:34:08.868Z,17.13
2023-02-23T22:36:36.626Z,14.97
2023-02-23T22:39:06.783Z,16.23
2023-02-23T22:41:42.058Z,12.70
2023-02-23T22:44:13.193Z,12.57
2023-02-23T22:46:42.842Z,18.97
2023-02-23T22:49:11.724Z,13.23
2023-02-23T22:51:39.797Z,17.67
2023-02-23T22:54:08.112Z,15.00
2023-02-23T22:56:36.827Z,15.37
2023-02-23T23:01:50.044Z,13.17
2023-02-23T23:04:19.461Z,13.77
2023-02-23T23:06:47.649Z,14.90
2023-02-23T23:09:16.412Z,12.63
2023-02-23T23:11:44.814Z,11.73
2023-02-23T23:14:13.458Z,13.30
2023-02-23T23:16:47.590Z,15.60
2023-02-23T23:19:23.808Z,11.90
2023-02-23T23:21:54.884Z,12.10
2023-02-23T23:24:23.995Z,15.83
2023-02-23T23:26:55.007Z,15.83
2023-02-23T23:29:25.581Z,15.70
2023-02-23T23:31:53.997Z,11.33
2023-02-23T23:34:23.133Z,10.40
2023-02-23T23:36:53.021Z,13.20
2023-02-23T23:39:22.865Z,13.67
2023-02-23T23:41:51.225Z,14.40
2023-02-23T23:44:21.059Z,13.90
2023-02-23T23:46:50.533Z,9.20
2023-02-23T23:49:20.005Z,14.70
2023-02-23T23:51:50.899Z,16.80
2023-02-23T23:54:21.373Z,9.50
2023-02-23T23:56:49.496Z,9.17
2023-02-23T23:59:21.196Z,13.23
